createdAt,value
2018-03-14T00:05:59.229Z,0
2018-03-14T00:16:14.405Z,0
2018-03-14T00:26:29.071Z,0
2018-03-14T00:36:44.053Z,0
2018-03-14T00:46:59.231Z,0
2018-03-14T00:57:14.105Z,0
2018-03-14T01:07:27.795Z,0
2018-03-14T01:17:42.525Z,0
2018-03-14T01:27:56.353Z,0
2018-03-14T01:38:10.192Z,0
2018-03-14T01:48:25.177Z,0
2018-03-14T01:58:39.725Z,0
2018-03-14T02:08:54.387Z,0
2018-03-14T02:19:09.754Z,0
2018-03-14T02:29:25.236Z,0
2018-03-14T02:39:39.551Z,0
2018-03-14T02:49:54.518Z,0
2018-03-14T03:00:08.896Z,0
2018-03-14T03:10:23.428Z,0
2018-03-14T03:20:37.117Z,0
2018-03-14T03:30:52.513Z,0
2018-03-14T03:41:08.707Z,0
2018-03-14T03:51:23.339Z,0
2018-03-14T04:01:38.904Z,0
2018-03-14T04:11:53.803Z,0
2018-03-14T04:22:08.882Z,0
2018-03-14T04:32:23.683Z,0
2018-03-14T04:42:38.168Z,0
2018-03-14T04:52:52.193Z,0
2018-03-14T05:03:06.859Z,0
2018-03-14T05:13:21.659Z,0
2018-03-14T05:23:36.549Z,0
2018-03-14T05:33:51.601Z,0
2018-03-14T05:44:05.447Z,5
2018-03-14T05:54:20.557Z,15
2018-03-14T06:04:34.776Z,30
2018-03-14T06:14:49.983Z,40
2018-03-14T06:25:04.285Z,70
2018-03-14T06:35:19.160Z,85
2018-03-14T06:45:33.509Z,105
2018-03-14T06:55:48.960Z,115
2018-03-14T07:06:03.835Z,155
2018-03-14T07:16:19.245Z,220
2018-03-14T07:26:34.215Z,250
2018-03-14T07:36:48.239Z,320
2018-03-14T07:47:02.730Z,355
2018-03-14T07:57:16.410Z,420
2018-03-14T08:07:30.119Z,360
2018-03-14T08:17:44.693Z,565
2018-03-14T08:27:59.827Z,400
2018-03-14T08:38:15.069Z,715
2018-03-14T08:48:29.683Z,555
2018-03-14T08:58:43.720Z,575
2018-03-14T09:08:58.309Z,450
2018-03-14T09:19:12.736Z,580
2018-03-14T09:29:28.172Z,510
2018-03-14T09:39:42.774Z,455
2018-03-14T09:49:57.085Z,535
2018-03-14T10:00:10.790Z,650
2018-03-14T10:10:26.040Z,770
2018-03-14T10:20:41.396Z,495
2018-03-14T10:30:56.155Z,410
2018-03-14T10:41:09.952Z,435
2018-03-14T10:51:25.396Z,515
2018-03-14T11:01:40.718Z,450
2018-03-14T11:11:55.049Z,430
2018-03-14T11:22:10.393Z,655
2018-03-14T11:32:25.438Z,780
2018-03-14T11:42:40.512Z,645
2018-03-14T11:52:54.284Z,575
2018-03-14T12:03:08.689Z,715
2018-03-14T12:13:23.033Z,805
2018-03-14T12:23:37.301Z,940
2018-03-14T12:33:51.502Z,1005
2018-03-14T12:44:06.824Z,725
2018-03-14T12:54:22.186Z,1005
2018-03-14T13:04:36.587Z,1250
2018-03-14T13:14:51.706Z,1445
2018-03-14T13:25:06.224Z,1055
2018-03-14T13:35:20.720Z,1555
2018-03-14T13:45:35.984Z,690
2018-03-14T13:55:50.005Z,1085
2018-03-14T14:06:04.117Z,1135
2018-03-14T14:16:19.629Z,1085
2018-03-14T14:26:33.674Z,1090
2018-03-14T14:36:48.904Z,1050
2018-03-14T14:47:03.677Z,1015
2018-03-14T14:57:19.246Z,955
2018-03-14T15:07:34.554Z,890
2018-03-14T15:17:49.607Z,820
2018-03-14T15:28:04.401Z,770
2018-03-14T15:38:19.455Z,705
2018-03-14T15:48:34.650Z,285
2018-03-14T15:58:49.868Z,575
2018-03-14T16:09:04.329Z,475
2018-03-14T16:19:19.090Z,390
2018-03-14T16:29:32.859Z,315
2018-03-14T16:39:46.628Z,145
2018-03-14T16:50:00.960Z,110
2018-03-14T17:00:15.076Z,85
2018-03-14T17:10:29.969Z,55
2018-03-14T17:20:44.729Z,30
2018-03-14T17:30:59.243Z,10
2018-03-14T17:41:13.624Z,5
2018-03-14T17:51:28.251Z,0
2018-03-14T18:01:42.381Z,0
2018-03-14T18:11:56.654Z,0
2018-03-14T18:22:10.859Z,0
2018-03-14T18:42:38.793Z,0
2018-03-14T18:52:52.510Z,0
2018-03-14T19:13:22.274Z,0
2018-03-14T20:14:48.370Z,0
2018-03-14T20:25:03.099Z,0
2018-03-14T20:35:17.828Z,0
2018-03-14T21:06:02.544Z,0
2018-03-14T21:16:18.072Z,0
2018-03-14T21:26:33.407Z,0
2018-03-14T21:57:18.291Z,0
2018-03-14T22:07:32.894Z,0
2018-03-14T22:17:47.565Z,0
2018-03-14T22:28:01.358Z,0
2018-03-14T22:48:29.752Z,0
2018-03-14T22:58:44.079Z,0
2018-03-14T23:08:58.340Z,0
2018-03-14T23:19:12.349Z,0
2018-03-14T23:29:26.336Z,0
2018-03-14T23:39:41.600Z,0
2018-03-14T23:49:57.097Z,0
